Time;durP1;ratioP1;P1;durP2;ratioP2;P2;SDS_P1;SDS_P2;PMS_P1;PMS_P2;Temp;Humidity;BMP_temperature;BMP_pressure;BME280_temperature;BME280_humidity;BME280_pressure;Samples;Min_cycle;Max_cycle;Signal;HPM_P1;HPM_P2
2023/03/04 00:03:57;;;;;;;22.40;11.33;;;3.20;86.60;;;1.27;66.62;100202.28;10335798;28;96627;-88
2023/03/04 00:09:00;;;;;;;21.83;11.33;;;3.10;87.10;;;1.27;66.25;100210.16;10316553;28;96678;-88
2023/03/04 00:14:04;;;;;;;25.53;12.13;;;3.10;86.70;;;1.20;66.37;100201.06;10287965;28;98213;-88
2023/03/04 00:19:07;;;;;;;23.07;11.90;;;3.00;86.70;;;1.14;66.57;100198.88;10321234;28;97382;-88
2023/03/04 00:24:10;;;;;;;21.13;10.53;;;3.00;86.70;;;1.04;66.31;100196.06;10331863;28;96840;-87
2023/03/04 00:29:13;;;;;;;21.43;9.93;;;2.90;86.50;;;0.88;66.08;100194.59;10285291;28;96679;-87
2023/03/04 00:34:16;;;;;;;21.80;11.10;;;2.80;86.40;;;0.69;66.88;100193.25;10315519;28;96601;-88
2023/03/04 00:39:19;;;;;;;25.10;11.43;;;2.60;86.60;;;0.53;67.70;100200.47;10242209;28;96824;-87
2023/03/04 00:44:22;;;;;;;18.87;9.43;;;2.50;87.20;;;0.40;68.12;100194.38;10301182;28;97796;-88
2023/03/04 00:49:25;;;;;;;24.83;11.97;;;2.40;87.60;;;0.33;68.45;100193.97;10326405;28;96893;-88
2023/03/04 00:54:28;;;;;;;21.53;10.77;;;2.20;88.40;;;0.27;68.53;100183.91;10296354;28;96520;-88
2023/03/04 00:59:31;;;;;;;26.33;11.17;;;2.20;88.30;;;0.17;68.76;100178.47;10274203;28;96673;-88
2023/03/04 01:04:35;;;;;;;25.90;11.17;;;2.10;88.10;;;0.04;69.05;100172.38;10311210;28;97722;-87
2023/03/04 01:09:38;;;;;;;26.57;12.30;;;2.00;88.10;;;-0.10;68.77;100165.47;10327251;28;96707;-88
2023/03/04 01:14:41;;;;;;;19.43;10.10;;;1.90;88.10;;;-0.24;69.22;100175.13;10287666;28;96554;-87
2023/03/04 01:19:45;;;;;;;22.80;10.70;;;1.70;88.00;;;-0.44;69.32;100174.63;10252690;28;97412;-88
2023/03/04 01:24:48;;;;;;;20.27;9.80;;;1.60;88.30;;;-0.63;69.91;100163.69;10289259;28;96519;-88
2023/03/04 01:29:51;;;;;;;25.70;9.97;;;1.40;88.60;;;-0.82;70.23;100162.25;10314279;28;97469;-87
2023/03/04 01:34:54;;;;;;;24.73;10.53;;;1.30;88.90;;;-1.03;70.76;100166.19;10283514;28;96788;-87
2023/03/04 01:39:57;;;;;;;23.47;10.13;;;1.10;89.00;;;-1.20;71.28;100150.75;10332388;28;96480;-88
2023/03/04 01:45:01;;;;;;;20.47;9.90;;;0.90;89.60;;;-1.38;71.83;100155.31;10335302;28;96554;-87
2023/03/04 01:50:12;;;;;;;20.80;10.03;;;0.70;89.90;;;-1.52;72.33;100153.53;10330152;28;96654;-88
2023/03/04 01:55:19;;;;;;;20.42;10.95;;;0.60;90.20;;;-1.64;73.27;100141.25;10330567;28;96645;-88
2023/03/04 02:00:33;;;;;;;24.43;11.77;;;0.40;90.50;;;-1.78;73.56;100147.28;10283296;28;96622;-89
2023/03/04 02:05:42;;;;;;;24.40;11.27;;;0.30;90.60;;;-1.86;74.13;100133.03;10341567;28;96544;-88
2023/03/04 02:10:46;;;;;;;25.33;12.00;;;0.20;91.00;;;-1.95;74.40;100137.03;10317579;28;97420;-89
2023/03/04 02:15:49;;;;;;;23.10;10.60;;;0.20;91.10;;;-1.97;74.74;100134.50;10287002;28;97690;-88
2023/03/04 02:21:11;;;;;;;21.87;10.37;;;0.10;91.40;;;-2.01;75.05;100130.41;10307317;28;96578;-89
2023/03/04 02:26:24;;;;;;;17.30;8.77;;;0.10;91.70;;;-2.09;75.12;100131.78;10307674;28;96649;-88
2023/03/04 02:31:40;;;;;;;24.63;11.87;;;0.00;91.80;;;-2.10;75.73;100124.88;10301842;28;97464;-89
2023/03/04 02:36:45;;;;;;;28.07;12.70;;;-0.10;92.00;;;-2.02;76.88;100115.72;10308445;28;96596;-87
2023/03/04 02:41:53;;;;;;;22.40;11.00;;;-0.10;92.50;;;-1.96;76.32;100104.94;10308958;28;96578;-87
2023/03/04 02:46:57;;;;;;;21.30;9.80;;;0.00;92.70;;;-1.96;76.40;100099.72;10310741;28;97917;-88
2023/03/04 02:52:11;;;;;;;18.43;8.00;;;0.00;92.90;;;-1.89;76.10;100105.41;10303559;28;96758;-89
2023/03/04 02:57:15;;;;;;;14.87;6.80;;;0.00;93.20;;;-1.69;74.44;100104.19;10314762;28;96665;-89
2023/03/04 03:02:18;;;;;;;17.70;7.10;;;0.20;92.90;;;-1.43;73.25;100092.22;10329189;28;98358;-87
2023/03/04 03:07:21;;;;;;;16.73;7.87;;;0.40;92.40;;;-1.13;71.46;100086.88;10331388;28;96623;-88
2023/03/04 03:12:25;;;;;;;21.70;10.97;;;0.60;91.70;;;-1.04;69.73;100083.66;10313728;28;97775;-87
2023/03/04 03:17:28;;;;;;;31.10;15.47;;;0.80;91.20;;;-1.18;69.79;100084.53;10326300;28;96989;-87
2023/03/04 03:22:31;;;;;;;26.23;11.87;;;0.70;91.10;;;-1.39;70.10;100083.25;10316513;28;96418;-86
2023/03/04 03:27:34;;;;;;;20.63;10.03;;;0.60;91.10;;;-1.63;70.62;100076.00;10317452;28;96619;-86
2023/03/04 03:32:38;;;;;;;24.87;10.57;;;0.50;91.20;;;-1.78;71.51;100069.13;10314080;28;96634;-86
2023/03/04 03:37:41;;;;;;;21.83;10.80;;;0.30;91.30;;;-1.92;71.89;100064.75;10320939;28;96837;-87
2023/03/04 03:42:44;;;;;;;22.37;10.83;;;0.20;91.60;;;-2.02;72.62;100063.63;10324845;28;97402;-87
2023/03/04 03:47:47;;;;;;;16.63;6.87;;;0.00;91.80;;;-2.07;72.71;100065.66;10269903;28;98480;-86
2023/03/04 03:52:49;;;;;;;15.37;6.70;;;0.00;92.20;;;-1.99;72.95;100068.63;10326993;28;97461;-87
2023/03/04 03:57:53;;;;;;;17.93;8.33;;;0.00;92.40;;;-1.57;72.56;100068.75;10316368;28;96885;-87
2023/03/04 04:02:58;;;;;;;19.80;9.77;;;0.20;92.40;;;-1.03;71.54;100051.44;10299889;28;97895;-87
2023/03/04 04:08:01;;;;;;;23.07;10.17;;;0.60;92.30;;;-0.64;69.42;100049.81;10310834;28;96609;-87
2023/03/04 04:13:05;;;;;;;22.30;10.00;;;1.00;91.80;;;-0.54;69.33;100045.63;10303370;28;97268;-87
2023/03/04 04:18:08;;;;;;;18.53;9.33;;;1.10;91.50;;;-0.47;68.66;100051.31;10285224;28;98194;-87
2023/03/04 04:23:11;;;;;;;20.57;8.87;;;1.20;91.20;;;-0.45;68.55;100060.72;10315699;28;97320;-87
2023/03/04 04:28:14;;;;;;;22.83;9.57;;;1.30;91.00;;;-0.34;67.83;100047.78;10311507;28;96711;-88
2023/03/04 04:33:17;;;;;;;20.73;10.07;;;1.40;90.80;;;-0.24;67.42;100041.94;10276250;28;96693;-87
2023/03/04 04:38:20;;;;;;;19.50;8.73;;;1.40;90.50;;;-0.22;67.28;100040.91;10304387;28;96544;-89
2023/03/04 04:43:24;;;;;;;21.57;9.57;;;1.50;90.50;;;-0.19;67.99;100039.84;10321474;28;98334;-87
2023/03/04 04:48:28;;;;;;;24.50;10.20;;;1.50;90.70;;;-0.11;68.60;100042.81;10300724;28;96566;-87
2023/03/04 04:53:31;;;;;;;22.07;10.13;;;1.60;91.20;;;-0.05;69.33;100038.00;10285001;28;96497;-86
2023/03/04 04:58:35;;;;;;;24.87;10.73;;;1.60;91.60;;;-0.03;69.63;100038.72;10286762;28;96664;-87
2023/03/04 05:03:39;;;;;;;20.37;9.63;;;1.70;91.90;;;-0.07;70.10;100046.84;10281209;28;97089;-88
2023/03/04 05:08:42;;;;;;;18.30;8.67;;;1.70;92.00;;;-0.13;69.46;100047.28;10304609;28;96472;-86
2023/03/04 05:13:47;;;;;;;18.50;8.40;;;1.60;91.80;;;-0.23;69.87;100038.41;10306227;28;96828;-87
2023/03/04 05:18:50;;;;;;;30.40;8.33;;;1.60;91.80;;;-0.33;69.74;100049.44;10283815;28;97731;-87
2023/03/04 05:23:53;;;;;;;19.40;8.70;;;1.50;91.70;;;-0.52;69.95;100051.63;10301161;28;97105;-87
2023/03/04 05:28:56;;;;;;;19.57;9.67;;;1.40;91.60;;;-0.76;69.61;100048.84;10293398;28;96719;-87
2023/03/04 05:33:59;;;;;;;20.73;9.37;;;1.20;91.40;;;-0.98;70.04;100046.75;10293773;28;96589;-86
2023/03/04 05:39:02;;;;;;;19.50;8.77;;;1.00;91.50;;;-1.04;71.27;100046.31;10298012;28;96530;-86
2023/03/04 05:44:05;;;;;;;19.43;8.57;;;0.90;91.90;;;-0.91;72.49;100036.75;10293229;28;96620;-88
2023/03/04 05:49:09;;;;;;;16.87;8.13;;;1.00;92.50;;;-0.80;72.28;100044.75;10296482;28;97401;-88
2023/03/04 05:54:12;;;;;;;27.80;11.00;;;1.10;92.50;;;-0.82;71.71;100050.06;10314740;28;97526;-88
2023/03/04 05:59:19;;;;;;;23.33;12.27;;;1.10;92.50;;;-0.89;71.83;100048.78;10306857;28;97746;-88
2023/03/04 06:04:22;;;;;;;23.53;11.10;;;1.00;92.60;;;-0.94;72.41;100066.50;10312778;28;96640;-88
2023/03/04 06:09:25;;;;;;;30.57;13.43;;;1.00;92.70;;;-0.95;72.59;100067.44;10292076;28;97184;-87
2023/03/04 06:14:31;;;;;;;29.03;13.23;;;0.90;93.00;;;-0.82;73.06;100065.72;10298581;28;96802;-86
2023/03/04 06:19:36;;;;;;;28.00;14.50;;;1.00;93.40;;;-0.62;73.37;100068.81;10261502;28;97509;-87
2023/03/04 06:24:39;;;;;;;32.57;16.20;;;1.20;93.50;;;-0.40;73.60;100073.47;10293206;28;97053;-87
2023/03/04 06:29:42;;;;;;;24.03;12.73;;;1.30;93.80;;;0.00;73.79;100066.44;10294243;28;97509;-88
2023/03/04 06:34:45;;;;;;;24.53;10.67;;;1.60;94.10;;;0.45;73.03;100072.03;10297038;28;96640;-88
2023/03/04 06:39:49;;;;;;;25.83;12.87;;;2.00;94.00;;;0.83;72.17;100077.19;10303817;28;96605;-89
2023/03/04 06:44:52;;;;;;;24.87;12.17;;;2.40;93.90;;;1.17;71.72;100080.84;10290071;28;98424;-88
2023/03/04 06:49:55;;;;;;;20.83;10.60;;;2.70;93.60;;;1.53;69.94;100072.09;10320605;28;96653;-88
2023/03/04 06:54:59;;;;;;;16.43;8.80;;;3.10;93.00;;;1.83;69.18;100068.16;10299233;28;96660;-88
2023/03/04 07:00:04;;;;;;;57.53;28.93;;;3.40;92.60;;;2.02;67.84;100078.06;10309934;28;96625;-87
2023/03/04 07:05:10;;;;;;;55.67;25.83;;;3.60;92.00;;;2.10;67.60;100073.94;10304833;28;96764;-87
2023/03/04 07:10:13;;;;;;;67.47;35.33;;;3.80;92.00;;;2.26;67.06;100073.56;10284063;28;96479;-86
2023/03/04 07:15:16;;;;;;;40.10;22.20;;;3.90;91.70;;;2.40;67.05;100068.13;10294925;28;96606;-87
2023/03/04 07:20:19;;;;;;;44.40;23.50;;;4.00;91.60;;;2.51;67.55;100069.06;10274648;28;96798;-86
2023/03/04 07:25:22;;;;;;;39.00;19.83;;;4.20;91.70;;;2.69;68.19;100065.00;10288086;28;97104;-89
2023/03/04 07:30:29;;;;;;;37.87;18.63;;;4.40;91.90;;;2.97;67.91;100061.03;10265048;28;96705;-88
2023/03/04 07:35:35;;;;;;;32.30;15.83;;;4.60;92.00;;;3.30;66.88;100054.00;10292991;28;97228;-88
2023/03/04 07:40:38;;;;;;;30.47;15.57;;;4.80;91.70;;;3.72;65.32;100052.28;10307712;28;96663;-89
2023/03/04 07:45:44;;;;;;;30.00;15.40;;;5.20;91.10;;;4.10;63.84;100059.59;10290151;28;98310;-89
2023/03/04 07:50:47;;;;;;;17.13;7.47;;;5.60;90.40;;;4.56;59.18;100055.66;10302365;28;96565;-88
2023/03/04 07:55:51;;;;;;;10.73;6.13;;;6.00;83.40;;;5.40;55.34;100053.47;10327733;28;96611;-87
2023/03/04 08:00:54;;;;;;;12.93;5.97;;;6.60;81.20;;;6.95;51.20;100045.16;10259064;28;97138;-88
2023/03/04 08:05:57;;;;;;;14.63;6.90;;;7.40;77.80;;;8.28;46.51;100047.78;10275588;28;96563;-87
2023/03/04 08:11:09;;;;;;;10.03;6.23;;;8.10;70.40;;;8.73;43.42;100041.41;10271877;28;97741;-89
2023/03/04 08:16:19;;;;;;;15.40;9.47;;;8.60;68.80;;;8.85;42.76;100038.28;10297401;28;96552;-94
2023/03/04 08:21:25;;;;;;;15.00;7.03;;;8.90;66.90;;;9.02;41.45;100041.00;10300967;28;96884;-92
2023/03/04 08:26:37;;;;;;;9.70;5.97;;;9.20;64.40;;;8.94;41.25;100033.88;10341888;28;96719;-91
2023/03/04 08:31:45;;;;;;;15.20;7.33;;;9.50;62.90;;;9.42;40.17;100034.13;10291882;28;96583;-95
2023/03/04 08:36:50;;;;;;;12.00;7.30;;;9.80;62.50;;;9.51;40.39;100035.78;10319379;28;96561;-93
2023/03/04 08:41:53;;;;;;;12.50;7.43;;;10.10;61.80;;;9.45;40.59;100033.78;10290535;28;98321;-93
2023/03/04 08:46:56;;;;;;;12.57;7.77;;;10.30;60.90;;;9.80;40.55;100030.81;10303799;28;97373;-93
2023/03/04 08:52:00;;;;;;;14.63;8.07;;;10.60;61.30;;;10.56;39.33;100031.34;10266276;28;98901;-92
2023/03/04 08:57:06;;;;;;;13.68;8.73;;;11.10;60.90;;;10.97;38.08;100013.38;10291287;28;97131;-93
2023/03/04 09:02:10;;;;;;;16.30;9.90;;;11.50;58.70;;;10.78;37.50;100005.81;10319090;28;96728;-92
2023/03/04 09:07:15;;;;;;;17.65;10.68;;;11.50;57.10;;;11.01;37.09;99996.06;10312783;28;96733;-94
2023/03/04 09:12:18;;;;;;;35.63;20.17;;;11.60;56.90;;;10.95;37.86;99989.63;10290332;28;98066;-92
2023/03/04 09:17:21;;;;;;;18.88;13.40;;;11.60;57.10;;;11.21;37.60;99989.28;10302328;28;97778;-92
2023/03/04 09:22:24;;;;;;;20.67;13.85;;;11.90;56.90;;;11.27;37.68;99987.75;10295577;28;98608;-93
2023/03/04 09:27:27;;;;;;;22.30;15.77;;;11.90;56.70;;;11.28;37.51;99983.28;10312281;28;96685;-93
2023/03/04 09:32:30;;;;;;;22.45;15.05;;;11.90;56.40;;;11.13;37.90;99984.03;10313971;28;96902;-92
2023/03/04 09:37:35;;;;;;;21.03;14.40;;;11.80;56.40;;;11.03;38.54;99966.63;10310473;28;96615;-93
2023/03/04 09:42:46;;;;;;;21.35;13.80;;;11.80;56.90;;;11.10;38.61;99979.06;10298330;28;96393;-93
2023/03/04 09:47:53;;;;;;;23.48;15.00;;;12.10;56.80;;;10.94;38.36;99963.22;10266249;28;97013;-91
2023/03/04 09:53:06;;;;;;;22.63;14.10;;;12.30;55.30;;;10.86;38.40;99964.09;10265238;28;96522;-93
2023/03/04 09:59:06;;;;;;;24.15;15.20;;;12.40;55.50;;;10.76;38.76;99971.47;10249405;28;96580;-94
2023/03/04 10:04:12;;;;;;;50.15;31.08;;;12.40;55.20;;;10.74;38.95;99967.34;10082670;28;96691;-94
2023/03/04 10:09:39;;;;;;;30.90;19.45;;;12.40;55.60;;;10.83;39.60;99963.59;10254652;28;96515;-92
2023/03/04 10:14:50;;;;;;;31.17;19.60;;;12.30;56.00;;;10.29;39.95;99959.03;10297785;28;96592;-91
2023/03/04 10:20:17;;;;;;;;;;;11.70;56.20;;;9.90;41.65;99953.66;10283623;28;96775;-91
2023/03/04 10:25:28;;;;;;;22.00;14.20;;;11.40;57.70;;;9.96;40.79;99952.16;10295420;28;98684;-91
2023/03/04 10:31:10;;;;;;;25.75;13.90;;;11.60;56.80;;;10.20;40.02;99946.78;10312596;28;96688;-91
2023/03/04 10:36:29;;;;;;;20.38;13.50;;;11.80;55.90;;;10.55;39.71;99939.34;10314848;28;97953;-90
2023/03/04 10:41:32;;;;;;;25.67;16.77;;;12.00;55.80;;;10.68;39.25;99929.81;10316733;28;96827;-91
2023/03/04 10:46:41;;;;;;;22.55;15.75;;;12.30;55.20;;;10.81;41.54;99923.09;10298336;28;96532;-89
2023/03/04 10:52:28;;;;;;;24.00;16.40;;;12.50;57.10;;;11.38;40.96;99910.16;10324988;28;96577;-89
2023/03/04 10:57:40;;;;;;;21.77;14.50;;;13.00;57.20;;;11.63;38.58;99907.28;10317237;28;98532;-91
2023/03/04 11:02:45;;;;;;;18.85;12.73;;;13.40;54.50;;;11.73;36.47;99902.53;10324196;28;96579;-90
2023/03/04 11:07:59;;;;;;;24.27;12.88;;;13.50;52.10;;;11.73;36.28;99899.88;10303140;28;97403;-90
2023/03/04 11:13:25;;;;;;;21.95;13.40;;;13.60;51.30;;;11.83;35.46;99889.81;10327104;28;96745;-90
2023/03/04 11:18:51;;;;;;;18.88;13.38;;;13.60;50.50;;;11.71;35.35;99884.09;10273548;28;96952;-89
2023/03/04 11:24:12;;;;;;;19.20;12.52;;;13.40;50.50;;;11.81;35.19;99881.16;10277055;28;96876;-90
2023/03/04 11:29:56;;;;;;;16.48;11.30;;;13.40;50.50;;;11.80;35.38;99874.16;10298805;28;97306;-90
2023/03/04 11:35:16;;;;;;;18.88;12.70;;;13.60;50.50;;;11.86;35.45;99872.63;10308871;28;96696;-92
2023/03/04 11:40:42;;;;;;;19.65;12.98;;;13.60;50.20;;;11.79;35.38;99865.34;10308934;28;96547;-91
2023/03/04 11:46:20;;;;;;;23.00;12.43;;;13.60;49.80;;;11.88;34.41;99852.81;10319688;28;96971;-93
2023/03/04 11:51:26;;;;;;;18.33;13.10;;;13.70;49.60;;;11.74;35.48;99849.09;10316883;28;96411;-92
2023/03/04 12:20:44;;;;;;;;;;;;;;;;;;;;;
2023/03/04 12:27:34;;;;;;;19.80;12.60;;;14.00;47.90;;;11.65;35.04;99809.47;9961019;28;97445;-91
2023/03/04 12:34:18;;;;;;;;;;;;;;;;;;;;;
2023/03/04 12:41:29;;;;;;;;;;;;;;;;;;;;;
2023/03/04 12:48:33;;;;;;;;;;;;;;;;;;;;;
2023/03/04 12:54:24;;;;;;;22.25;11.90;;;11.70;51.60;;;10.25;37.30;99784.28;10346417;28;96382;-82
2023/03/04 12:59:36;;;;;;;18.30;10.67;;;11.60;52.40;;;10.28;36.78;99763.53;10346769;28;96576;-86
2023/03/04 13:05:06;;;;;;;17.23;11.27;;;11.60;52.00;;;10.34;37.60;99757.50;10348482;28;97473;-86
2023/03/04 13:10:16;;;;;;;20.37;11.13;;;11.60;52.50;;;10.40;37.15;99746.19;10372521;28;97098;-86
2023/03/04 13:15:33;;;;;;;20.17;12.47;;;11.70;52.60;;;10.56;37.93;99736.44;10346399;28;97688;-87
2023/03/04 13:20:39;;;;;;;21.47;11.73;;;11.80;53.10;;;10.65;37.60;99719.41;10335144;28;96544;-86
2023/03/04 13:25:54;;;;;;;16.93;9.60;;;11.90;52.70;;;10.81;36.44;99716.59;10365672;28;96572;-86
2023/03/04 13:31:19;;;;;;;16.80;8.87;;;12.10;51.70;;;10.92;35.27;99697.56;10349804;28;97409;-86
2023/03/04 13:36:30;;;;;;;13.33;8.27;;;12.20;50.10;;;10.93;35.23;99693.88;10369476;28;96861;-86
2023/03/04 13:41:47;;;;;;;;;;;12.20;50.20;;;10.99;35.09;99698.47;10346720;28;96537;-86
2023/03/04 13:46:50;;;;;;;13.93;7.67;;;12.30;50.10;;;10.91;34.87;99687.09;10352416;28;97661;-86
2023/03/04 13:51:54;;;;;;;16.17;8.07;;;12.20;50.10;;;10.92;34.54;99692.25;10349632;28;97633;-86
2023/03/04 13:57:00;;;;;;;15.63;9.00;;;12.30;50.10;;;10.80;33.59;99691.03;10376977;27;96572;-88
2023/03/04 14:02:33;;;;;;;13.40;7.60;;;12.20;48.40;;;10.53;32.95;99691.63;10347138;28;96664;-81
2023/03/04 14:07:36;;;;;;;11.10;6.60;;;11.90;47.20;;;10.40;32.88;99694.88;10345582;28;96771;-80
2023/03/04 14:12:44;;;;;;;13.00;6.90;;;11.70;47.30;;;10.25;33.13;99684.19;10348344;28;96561;-88
2023/03/04 14:17:57;;;;;;;11.70;7.13;;;11.60;47.80;;;10.17;33.85;99693.03;10315924;28;96871;-85
2023/03/04 14:23:24;;;;;;;12.07;6.70;;;11.50;48.60;;;10.15;33.72;99673.81;10312694;28;96900;-85
2023/03/04 14:28:27;;;;;;;13.50;7.60;;;11.50;48.40;;;10.10;33.89;99676.16;10333935;28;97774;-83
2023/03/04 14:33:30;;;;;;;15.77;7.33;;;11.50;48.60;;;10.03;34.55;99669.91;10341043;28;98784;-88
2023/03/04 14:38:36;;;;;;;17.43;7.83;;;11.40;49.30;;;9.93;35.11;99672.78;10340129;28;96570;-85
2023/03/04 14:43:57;;;;;;;13.03;7.43;;;11.30;49.70;;;9.94;35.46;99670.97;10353158;28;97765;-83
2023/03/04 14:49:01;;;;;;;14.00;8.53;;;11.30;50.30;;;9.87;36.40;99665.53;10340369;28;97293;-82
2023/03/04 14:54:05;;;;;;;16.57;9.73;;;11.20;50.90;;;9.73;36.22;99661.00;10331249;28;96567;-81
2023/03/04 14:59:12;;;;;;;18.73;9.87;;;11.10;51.10;;;9.65;37.01;99669.00;10333088;28;97103;-80
2023/03/04 15:04:19;;;;;;;19.03;10.13;;;11.00;52.00;;;9.50;37.17;99668.91;10337999;28;96693;-81
2023/03/04 15:09:25;;;;;;;19.87;9.07;;;10.90;51.90;;;9.34;37.88;99667.16;10322126;28;98172;-80
2023/03/04 15:14:51;;;;;;;19.63;11.27;;;10.80;52.50;;;9.27;38.21;99671.50;10336898;28;96374;-83
2023/03/04 15:20:10;;;;;;;22.63;14.17;;;10.70;53.10;;;9.09;38.72;99669.09;10328615;28;96842;-80
2023/03/04 15:25:14;;;;;;;21.10;11.50;;;10.50;53.50;;;8.89;39.31;99675.78;10328244;28;98839;-81
2023/03/04 15:30:29;;;;;;;19.57;11.20;;;10.30;54.10;;;8.69;40.25;99667.38;10339810;28;96875;-83
2023/03/04 15:35:32;;;;;;;18.30;10.40;;;10.20;54.70;;;8.48;39.84;99667.91;10281914;28;96496;-80
2023/03/04 15:40:44;;;;;;;28.37;13.17;;;10.00;54.10;;;8.25;38.64;99669.53;10312488;28;96719;-81
2023/03/04 15:45:49;;;;;;;19.63;10.93;;;9.70;53.10;;;8.04;38.43;99677.97;10328662;28;97529;-82
2023/03/04 15:50:59;;;;;;;30.30;15.47;;;9.60;52.60;;;7.82;38.35;99668.84;10331944;28;96574;-85
2023/03/04 15:56:20;;;;;;;18.93;10.90;;;9.30;52.40;;;7.60;38.29;99670.28;10353092;28;96690;-90
2023/03/04 16:01:24;;;;;;;18.47;10.47;;;9.20;52.40;;;7.40;39.09;99660.97;10326214;28;98227;-90
2023/03/04 16:06:30;;;;;;;22.90;11.07;;;8.90;53.30;;;7.22;39.93;99663.72;10305359;28;96431;-92
2023/03/04 16:11:43;;;;;;;21.37;12.10;;;8.80;54.00;;;7.04;40.62;99669.09;10328741;28;96687;-92
2023/03/04 16:16:46;;;;;;;20.00;10.40;;;8.60;54.50;;;6.88;41.00;99676.94;10328278;28;96759;-87
2023/03/04 16:21:49;;;;;;;19.60;11.23;;;8.40;54.90;;;6.78;41.35;99660.34;10292746;28;96601;-92
2023/03/04 16:26:52;;;;;;;19.00;11.43;;;8.30;55.20;;;6.64;41.82;99657.31;10334962;28;96594;-92
2023/03/04 16:31:55;;;;;;;18.40;10.53;;;8.20;55.70;;;6.53;42.27;99669.94;10302304;28;96772;-90
2023/03/04 16:37:04;;;;;;;20.07;11.23;;;8.10;56.20;;;6.48;42.31;99670.44;10338048;28;96308;-89
2023/03/04 16:42:21;;;;;;;20.33;11.17;;;8.00;56.20;;;6.37;42.62;99668.03;10292778;28;96565;-86
2023/03/04 16:47:24;;;;;;;21.87;11.03;;;7.90;56.50;;;6.30;43.08;99659.91;10330259;28;97033;-87
2023/03/04 16:52:32;;;;;;;26.70;13.90;;;7.80;57.00;;;6.25;43.29;99664.00;10350664;28;98763;-90
2023/03/04 16:57:35;;;;;;;22.27;13.07;;;7.80;57.40;;;6.17;43.78;99665.56;10333083;28;97515;-87
2023/03/04 17:02:38;;;;;;;22.60;11.90;;;7.70;57.80;;;6.12;44.15;99675.75;10315971;28;96617;-88
2023/03/04 17:07:41;;;;;;;22.67;12.63;;;7.60;58.40;;;6.07;44.54;99682.47;10332691;28;97514;-88
2023/03/04 17:12:44;;;;;;;20.57;11.43;;;7.60;58.70;;;5.95;45.05;99684.50;10323087;28;96836;-89
2023/03/04 17:17:47;;;;;;;24.03;13.07;;;7.50;59.10;;;5.84;45.64;99701.34;10360129;28;96461;-92
2023/03/04 17:22:52;;;;;;;22.30;13.57;;;7.40;59.70;;;5.74;46.26;99697.09;10312455;28;96691;-94
2023/03/04 17:27:55;;;;;;;26.33;13.60;;;7.30;60.00;;;5.61;46.79;99708.00;10302354;28;97593;-91
2023/03/04 17:32:58;;;;;;;21.43;13.27;;;7.20;60.80;;;5.53;47.28;99703.50;10327555;28;96553;-92
2023/03/04 17:38:01;;;;;;;23.67;12.23;;;7.10;61.30;;;5.45;47.88;99711.28;10320705;28;97496;-90
2023/03/04 17:43:10;;;;;;;26.60;14.80;;;7.00;62.20;;;5.37;48.64;99716.47;10342627;28;96534;-91
2023/03/04 17:48:16;;;;;;;23.97;13.20;;;6.90;62.90;;;5.24;49.49;99731.78;10327510;28;97834;-92
2023/03/04 17:53:19;;;;;;;21.33;12.53;;;6.80;63.70;;;5.09;50.65;99732.22;10352404;28;96497;-90
2023/03/04 17:58:23;;;;;;;28.20;16.00;;;6.70;64.90;;;4.97;51.21;99741.28;10314648;28;96555;-92
2023/03/04 18:03:26;;;;;;;27.03;14.20;;;6.60;65.50;;;4.83;51.81;99749.66;10305467;28;96620;-94
2023/03/04 18:08:29;;;;;;;30.73;15.00;;;6.40;66.20;;;4.65;52.58;99748.72;10297621;28;96477;-91
2023/03/04 18:13:32;;;;;;;27.53;15.13;;;6.30;66.70;;;4.49;52.95;99763.25;10305515;28;98407;-90
2023/03/04 18:18:35;;;;;;;28.47;15.37;;;6.10;67.50;;;4.32;53.62;99771.88;10352158;28;99058;-92
2023/03/04 18:23:39;;;;;;;24.40;14.70;;;6.00;67.80;;;4.14;53.83;99776.13;10344842;28;97357;-92
2023/03/04 18:28:41;;;;;;;21.67;12.27;;;5.80;68.30;;;3.93;55.30;99786.75;10320985;28;96803;-92
2023/03/04 18:33:45;;;;;;;21.47;10.80;;;5.60;69.50;;;3.73;55.67;99788.50;10298644;28;96642;-91
2023/03/04 18:38:49;;;;;;;15.37;8.80;;;5.40;70.50;;;3.56;57.38;99792.59;10273596;28;96535;-89
2023/03/04 18:43:52;;;;;;;15.20;8.43;;;5.20;72.00;;;3.43;57.88;99799.88;10311650;28;97500;-90
2023/03/04 18:49:01;;;;;;;12.63;7.13;;;5.10;72.80;;;3.32;58.62;99805.22;10323138;28;99008;-89
2023/03/04 18:54:05;;;;;;;10.77;6.10;;;5.00;73.80;;;3.20;59.08;99805.31;10332611;28;97993;-88
2023/03/04 18:59:45;;;;;;;13.13;6.63;;;4.80;75.20;;;3.10;59.46;99803.56;10325394;28;96672;-92
2023/03/04 19:04:49;;;;;;;11.20;6.30;;;4.70;74.50;;;2.97;60.51;99795.09;10323803;28;98875;-91
2023/03/04 19:09:53;;;;;;;9.90;6.47;;;4.70;75.20;;;2.88;61.24;99808.03;10323249;28;96616;-90
2023/03/04 19:14:57;;;;;;;10.00;6.17;;;4.60;76.00;;;2.82;61.35;99811.16;10348559;28;96569;-89
2023/03/04 19:20:06;;;;;;;11.03;6.07;;;4.50;77.30;;;2.79;62.10;99811.41;10340239;28;97379;-91
2023/03/04 19:25:10;;;;;;;10.37;6.37;;;4.50;77.40;;;2.74;62.07;99808.31;10319508;28;96787;-90
2023/03/04 19:30:13;;;;;;;8.70;5.43;;;4.40;77.10;;;2.66;62.25;99805.50;10325137;28;98603;-88
2023/03/04 19:35:16;;;;;;;20.83;7.90;;;4.30;77.10;;;2.57;62.51;99811.50;10339563;28;97956;-89
2023/03/04 19:40:20;;;;;;;10.17;5.33;;;4.30;77.30;;;2.48;62.70;99807.03;10332552;28;97617;-89
2023/03/04 19:45:24;;;;;;;23.70;7.80;;;4.20;77.20;;;2.38;62.79;99807.75;10346945;28;96505;-89
2023/03/04 19:50:27;;;;;;;10.30;5.97;;;4.10;77.40;;;2.29;63.37;99823.44;10360446;28;98407;-90
2023/03/04 19:55:35;;;;;;;8.47;5.27;;;4.00;77.60;;;2.29;63.12;99832.13;10309593;28;97558;-90
2023/03/04 20:00:38;;;;;;;22.03;9.07;;;4.00;78.30;;;2.25;63.61;99828.09;10270529;28;96450;-89
2023/03/04 20:05:41;;;;;;;13.37;6.53;;;4.00;78.50;;;2.27;63.49;99826.16;10313400;28;97856;-90
2023/03/04 20:10:44;;;;;;;15.00;6.80;;;4.00;79.00;;;2.35;63.46;99828.19;10350766;28;97413;-89
2023/03/04 20:15:47;;;;;;;10.93;5.20;;;4.00;79.40;;;2.35;63.11;99838.66;10285664;28;98309;-89
2023/03/04 20:20:50;;;;;;;14.73;6.43;;;4.00;78.90;;;2.25;63.29;99835.94;10359313;28;96859;-90
2023/03/04 20:25:54;;;;;;;39.13;10.03;;;4.00;78.80;;;2.11;63.53;99838.84;10331430;28;96601;-90
2023/03/04 20:31:24;;;;;;;10.80;5.70;;;3.90;78.30;;;1.91;64.05;99832.56;10313763;28;98413;-89
2023/03/04 20:36:29;;;;;;;134.97;27.37;;;3.70;78.40;;;1.83;64.28;99830.56;10301207;28;96780;-90
2023/03/04 20:41:33;;;;;;;41.03;11.77;;;3.70;79.30;;;1.67;64.66;99848.41;10334713;28;96639;-88
2023/03/04 20:46:41;;;;;;;18.37;8.53;;;3.50;79.30;;;1.52;65.53;99857.47;10299072;28;96496;-90
2023/03/04 20:51:45;;;;;;;11.57;6.73;;;3.40;80.70;;;1.61;66.51;99859.38;10360198;28;96584;-89
2023/03/04 20:56:48;;;;;;;12.17;7.03;;;3.40;82.30;;;1.71;66.66;99854.25;10328687;28;96696;-90
2023/03/04 21:01:51;;;;;;;10.10;5.97;;;3.40;82.60;;;1.74;65.89;99848.75;10344746;28;98823;-89
2023/03/04 21:06:54;;;;;;;9.97;5.67;;;3.40;82.50;;;1.62;65.68;99853.19;10288440;28;98591;-88
2023/03/04 21:11:58;;;;;;;12.97;6.80;;;3.40;82.00;;;1.48;65.84;99864.72;10368982;28;96589;-96
2023/03/04 21:17:04;;;;;;;25.63;10.17;;;3.30;81.90;;;1.28;65.74;99870.66;10358593;28;96407;-93
2023/03/04 21:22:14;;;;;;;20.47;11.63;;;3.10;81.70;;;1.04;66.51;99868.13;10384154;28;96476;-94
2023/03/04 21:27:18;;;;;;;16.40;7.57;;;3.00;81.80;;;0.96;67.77;99870.44;10332463;28;96597;-93
2023/03/04 21:32:25;;;;;;;13.80;7.47;;;2.80;83.10;;;0.96;68.42;99881.78;10328671;28;97305;-94
2023/03/04 21:37:28;;;;;;;23.53;7.77;;;2.80;84.90;;;0.96;68.27;99873.06;10361945;28;96657;-95
2023/03/04 21:42:32;;;;;;;17.83;7.53;;;2.80;84.90;;;0.94;68.58;99869.75;10365417;28;96402;-95
2023/03/04 21:47:35;;;;;;;16.57;7.77;;;2.70;85.90;;;0.90;68.79;99870.91;10333473;28;96937;-95
2023/03/04 21:52:38;;;;;;;13.13;6.93;;;2.70;85.90;;;0.91;69.55;99860.34;10305528;28;96558;-96